Time;durP1;ratioP1;P1;durP2;ratioP2;P2;SDS_P1;SDS_P2;PMS_P1;PMS_P2;Temp;Humidity;BMP_temperature;BMP_pressure;BME280_temperature;BME280_humidity;BME280_pressure;Samples;Min_cycle;Max_cycle;Signal;HPM_P1;HPM_P2
2023/04/07 00:01:07;598698.00;2.00;1031.97;36418.00;0.12;63.69;;;;;12.70;1.00;;;;;;2330157;40;3759;-88
2023/04/07 00:03:34;620674.00;2.07;1069.93;0.00;0.00;0.62;;;;;12.50;1.00;;;;;;2280816;60;1585;-86
2023/04/07 00:06:01;307419.00;1.02;530.67;0.00;0.00;0.62;;;;;12.50;1.00;;;;;;2280797;60;1609;-87
2023/04/07 00:08:28;272815.00;0.91;471.18;0.00;0.00;0.62;;;;;12.30;1.00;;;;;;2280852;60;1797;-88
2023/04/07 00:10:57;1509615.00;5.03;2661.23;92510.00;0.31;160.64;;;;;12.20;1.00;;;;;;2280925;60;1408;-87
2023/04/07 00:13:25;1310096.00;4.37;2290.59;73848.00;0.25;128.41;;;;;12.20;1.00;;;;;;2287528;40;3430;-85
2023/04/07 00:15:52;403111.00;1.34;695.15;0.00;0.00;0.62;;;;;12.20;1.00;;;;;;2280818;61;1159;-87
2023/04/07 00:18:19;783034.00;2.61;1351.55;53644.00;0.18;93.49;;;;;12.00;1.00;;;;;;2280950;61;938;-86
2023/04/07 00:20:46;625148.00;2.08;1077.66;0.00;0.00;0.62;;;;;11.90;1.00;;;;;;2280679;61;1596;-87
2023/04/07 00:23:13;991516.00;3.31;1717.45;7374.00;0.02;13.40;;;;;11.60;1.00;;;;;;2280662;61;1084;-88
2023/04/07 00:25:40;2415741.00;8.05;4515.86;150047.00;0.50;259.89;;;;;11.50;1.00;;;;;;2280845;61;891;-89
2023/04/07 00:28:11;1852653.00;6.18;3326.03;144233.00;0.48;249.87;;;;;11.60;1.00;;;;;;2280811;61;2072;-89
2023/04/07 00:33:11;1444458.00;4.81;2539.04;108219.00;0.36;187.76;;;;;11.50;1.00;;;;;;2257628;61;1979;-88
2023/04/07 00:35:38;393707.00;1.31;678.99;0.00;0.00;0.62;;;;;11.40;1.00;;;;;;2256067;61;1648;-89
2023/04/07 00:38:05;392446.00;1.31;676.82;0.00;0.00;0.62;;;;;11.70;1.00;;;;;;2256220;61;1595;-85
2023/04/07 00:40:32;1176029.00;3.92;2046.94;0.00;0.00;0.62;;;;;11.80;1.00;;;;;;2256264;61;1580;-87
2023/04/07 00:42:59;580443.00;1.93;1000.46;97078.00;0.32;168.53;;;;;12.30;1.00;;;;;;2275896;61;1217;-87
2023/04/07 00:45:28;255300.00;0.85;441.07;0.00;0.00;0.62;;;;;12.50;1.00;;;;;;2278473;55;3734;-88
2023/04/07 00:47:57;723805.00;2.41;1248.54;0.00;0.00;0.62;;;;;12.70;1.00;;;;;;2328099;55;3767;-88
2023/04/07 00:50:25;1850312.00;6.17;3321.36;105925.00;0.35;183.80;;;;;12.60;1.00;;;;;;2284961;60;893;-89
2023/04/07 00:52:53;798076.00;2.66;1377.77;126860.00;0.42;219.91;;;;;12.70;1.00;;;;;;2284797;60;2004;-90
2023/04/07 00:55:20;420701.00;1.40;725.40;89255.00;0.30;155.02;;;;;12.60;1.00;;;;;;2284943;60;988;-88
2023/04/07 00:57:48;117631328.00;392.10;65932544.00;0.00;0.00;0.62;;;;;12.60;1.00;;;;;;2284778;60;1402;-87
2023/04/07 01:00:15;451720.00;1.51;778.74;44009.00;0.15;76.82;;;;;12.60;1.00;;;;;;2284743;60;1000;-88
2023/04/07 01:02:52;722032.00;2.41;1245.47;62706.00;0.21;109.15;;;;;12.70;1.00;;;;;;2284715;60;1282;-88
2023/04/07 01:05:31;329344.00;1.10;568.36;0.00;0.00;0.62;;;;;12.50;1.00;;;;;;2283519;55;3771;-86
2023/04/07 01:08:06;1089268.00;3.63;1891.24;32781.00;0.11;57.40;;;;;12.60;1.00;;;;;;2280451;60;1315;-87
2023/04/07 01:13:08;118963560.00;396.55;68200232.00;117910808.00;393.04;66404040.00;;;;;12.40;1.00;;;;;;2257649;61;1899;-85
2023/04/07 01:15:39;607229.00;2.02;1046.70;19560.00;0.07;34.51;;;;;12.20;1.00;;;;;;2267828;40;3741;-88
2023/04/07 01:26:15;1668312.00;5.56;2964.02;13887.00;0.05;24.68;;;;;12.70;1.00;;;;;;2261710;60;1367;-87
2023/04/07 01:31:25;1008112.00;3.36;1746.84;0.00;0.00;0.62;;;;;12.60;1.00;;;;;;2312412;41;2121;-89
2023/04/07 01:33:55;245549.00;0.82;424.30;0.00;0.00;0.62;;;;;12.70;1.00;;;;;;2260040;61;2013;-86
2023/04/07 01:36:23;436223.00;1.45;752.09;0.00;0.00;0.62;;;;;12.80;1.00;;;;;;2265313;40;3585;-88
2023/04/07 01:38:55;1027696.00;3.43;1781.59;12332.00;0.04;21.99;;;;;12.80;1.00;;;;;;2295411;41;3553;-87
2023/04/07 01:41:24;770798.00;2.57;1330.24;88057.00;0.29;152.95;;;;;13.00;1.00;;;;;;2264005;61;1625;-87
2023/04/07 01:43:56;257556.00;0.86;444.95;0.00;0.00;0.62;;;;;13.10;1.00;;;;;;2263938;61;1638;-89
2023/04/07 01:46:26;253911.00;0.85;438.68;0.00;0.00;0.62;;;;;13.10;1.00;;;;;;2264198;61;1074;-87
2023/04/07 01:51:30;358760.00;1.20;618.92;0.00;0.00;0.62;;;;;12.80;1.00;;;;;;1413050;60;2230;-87
2023/04/07 01:53:58;150050.00;0.50;259.89;0.00;0.00;0.62;;;;;13.00;1.00;;;;;;2268432;61;1994;-87
2023/04/07 01:58:53;408609.00;1.36;704.61;0.00;0.00;0.62;;;;;13.00;1.00;;;;;;2274148;61;1375;-87
2023/04/07 02:01:20;49553.00;0.17;86.41;0.00;0.00;0.62;;;;;12.90;1.00;;;;;;2272511;55;3752;-87
2023/04/07 02:03:55;45447.00;0.15;79.31;0.00;0.00;0.62;;;;;12.90;1.00;;;;;;2260198;61;1028;-86
2023/04/07 02:06:27;148370.00;0.49;257.00;0.00;0.00;0.62;;;;;13.00;1.00;;;;;;2260165;61;1114;-88
2023/04/07 02:09:00;63246.00;0.21;110.09;0.00;0.00;0.62;;;;;13.00;1.00;;;;;;2260197;61;998;-89
2023/04/07 02:11:29;202222.00;0.67;349.75;18546.00;0.06;32.75;;;;;13.10;1.00;;;;;;2260149;61;1317;-90
2023/04/07 02:14:00;38166.00;0.13;66.72;0.00;0.00;0.62;;;;;13.10;1.00;;;;;;2260140;61;1912;-87
2023/04/07 02:16:30;131221.00;0.44;227.43;0.00;0.00;0.62;;;;;13.30;1.00;;;;;;2260305;61;1038;-87
2023/04/07 02:19:01;6694.00;0.02;12.22;0.00;0.00;0.62;;;;;13.30;1.00;;;;;;2260000;61;1703;-86
2023/04/07 02:21:29;198504.00;0.66;343.35;0.00;0.00;0.62;;;;;13.00;1.00;;;;;;2260110;61;1474;-88
2023/04/07 02:23:56;115208.00;0.38;199.82;0.00;0.00;0.62;;;;;12.90;1.00;;;;;;2260038;61;1765;-86
2023/04/07 02:26:23;131724.00;0.44;228.30;0.00;0.00;0.62;;;;;12.70;1.00;;;;;;2260100;61;1062;-87
2023/04/07 02:28:50;104193.00;0.35;180.81;0.00;0.00;0.62;;;;;12.40;1.00;;;;;;2260079;61;1600;-87
2023/04/07 02:31:16;24849.00;0.08;43.67;0.00;0.00;0.62;;;;;12.20;1.00;;;;;;2260068;61;1420;-85
2023/04/07 02:33:43;87988.00;0.29;152.83;0.00;0.00;0.62;;;;;12.20;1.00;;;;;;2260076;61;1991;-86
2023/04/07 02:36:11;311736.00;1.04;538.09;0.00;0.00;0.62;;;;;12.10;1.00;;;;;;2260024;61;1111;-88
2023/04/07 02:38:39;96942.00;0.32;168.29;0.00;0.00;0.62;;;;;12.10;1.00;;;;;;2260110;61;1118;-88
2023/04/07 02:41:06;115639.00;0.39;200.56;0.00;0.00;0.62;;;;;12.40;1.00;;;;;;2260027;61;1310;-86
2023/04/07 02:43:33;88695.00;0.30;154.05;0.00;0.00;0.62;;;;;12.30;1.00;;;;;;2259993;61;1168;-88
2023/04/07 02:46:00;72544.00;0.24;126.16;0.00;0.00;0.62;;;;;12.30;1.00;;;;;;2260104;61;1044;-87
2023/04/07 02:48:27;101088.00;0.34;175.45;0.00;0.00;0.62;;;;;12.50;1.00;;;;;;2259901;61;1023;-87
2023/04/07 02:50:54;762161.00;2.54;1315.21;33648.00;0.11;58.90;;;;;12.60;1.00;;;;;;2259925;61;1303;-88
2023/04/07 02:53:22;1284474.00;4.28;2243.72;90047.00;0.30;156.39;;;;;12.40;1.00;;;;;;2259993;61;2000;-89
2023/04/07 02:55:49;890275.00;2.97;1539.05;58523.00;0.20;101.92;;;;;12.40;1.00;;;;;;2260019;61;1153;-86
2023/04/07 02:58:16;1284980.00;4.28;2244.64;58508.00;0.20;101.90;;;;;12.50;1.00;;;;;;2259982;61;1181;-86
2023/04/07 03:00:43;859983.00;2.87;1485.94;29187.00;0.10;51.18;;;;;12.30;1.00;;;;;;2259990;61;1396;-88
2023/04/07 03:03:10;831742.00;2.77;1436.54;38684.00;0.13;67.61;;;;;12.20;1.00;;;;;;2261071;61;1111;-88
2023/04/07 03:05:36;1208718.00;4.03;2105.99;226730.00;0.76;391.92;;;;;12.20;1.00;;;;;;2261195;61;1162;-89
2023/04/07 03:08:04;1050628.00;3.50;1822.35;145644.00;0.49;252.30;;;;;12.10;1.00;;;;;;2261003;61;1044;-89
2023/04/07 03:10:32;1004420.00;3.35;1740.30;137118.00;0.46;237.60;;;;;12.10;1.00;;;;;;2260946;61;1443;-89
2023/04/07 03:12:59;935391.00;3.12;1618.36;154558.00;0.52;267.66;;;;;12.10;1.00;;;;;;2260958;61;2022;-88
2023/04/07 03:15:26;466565.00;1.56;804.28;92713.00;0.31;160.99;;;;;12.10;1.00;;;;;;2260994;61;1054;-87
2023/04/07 03:17:53;400249.00;1.33;690.23;100581.00;0.34;174.57;;;;;12.20;1.00;;;;;;2261153;61;1121;-87
2023/04/07 03:20:20;375627.00;1.25;647.91;96429.00;0.32;167.41;;;;;12.40;1.00;;;;;;2260997;61;1547;-89
2023/04/07 03:22:46;398626.00;1.33;687.44;100367.00;0.33;174.21;;;;;12.30;1.00;;;;;;2260955;61;1377;-88
2023/04/07 03:25:13;28249.00;0.09;49.55;0.00;0.00;0.62;;;;;12.60;1.00;;;;;;2260937;61;1617;-87
2023/04/07 03:27:42;117186240.00;390.62;65186292.00;117087360.00;390.29;65021284.00;;;;;12.40;1.00;;;;;;2261105;61;1069;-88
2023/04/07 03:30:10;112137.00;0.37;194.52;0.00;0.00;0.62;;;;;12.60;1.00;;;;;;2261073;61;1217;-88
2023/04/07 03:32:37;45332.00;0.15;79.11;0.00;0.00;0.62;;;;;12.30;1.00;;;;;;2260994;61;1414;-88
2023/04/07 03:35:04;152148.00;0.51;263.51;28975.00;0.10;50.81;;;;;12.30;1.00;;;;;;2260980;61;2005;-88
2023/04/07 03:37:31;39594.00;0.13;69.19;0.00;0.00;0.62;;;;;12.30;1.00;;;;;;2261038;61;2370;-88
2023/04/07 03:39:58;240742.00;0.80;416.03;0.00;0.00;0.62;;;;;12.30;1.00;;;;;;2260710;61;1743;-88
2023/04/07 03:42:25;106733.00;0.36;185.19;0.00;0.00;0.62;;;;;12.30;1.00;;;;;;2260681;61;1366;-89
2023/04/07 03:44:53;338314.00;1.13;583.78;0.00;0.00;0.62;;;;;12.40;1.00;;;;;;2260947;61;2326;-90
2023/04/07 03:47:21;72726.00;0.24;126.47;0.00;0.00;0.62;;;;;12.80;1.00;;;;;;2260790;61;1453;-91
2023/04/07 03:49:48;80169.00;0.27;139.33;0.00;0.00;0.62;;;;;12.90;1.00;;;;;;2260979;61;1086;-90
2023/04/07 03:52:15;63783.00;0.21;111.02;0.00;0.00;0.62;;;;;13.00;1.00;;;;;;2260844;61;1315;-88
2023/04/07 03:54:42;67924.00;0.23;118.17;0.00;0.00;0.62;;;;;12.70;1.00;;;;;;2260910;61;1919;-87
2023/04/07 03:57:09;293852.00;0.98;507.35;0.00;0.00;0.62;;;;;12.70;1.00;;;;;;2260877;61;1125;-88
2023/04/07 03:59:36;68697.00;0.23;119.51;0.00;0.00;0.62;;;;;12.60;1.00;;;;;;2260872;61;2256;-89
2023/04/07 04:02:04;85381.00;0.28;148.33;0.00;0.00;0.62;;;;;12.50;1.00;;;;;;2260793;61;1419;-86
2023/04/07 04:04:31;38806.00;0.13;67.82;0.00;0.00;0.62;;;;;12.40;1.00;;;;;;2260902;61;1559;-87
2023/04/07 04:06:58;120167.00;0.40;208.37;0.00;0.00;0.62;;;;;12.20;1.00;;;;;;2260876;61;1506;-87
2023/04/07 04:09:25;819031.00;2.73;1414.33;89377.00;0.30;155.23;;;;;12.10;1.00;;;;;;2260822;61;1106;-89
2023/04/07 04:11:52;752585.00;2.51;1298.55;35884.00;0.12;62.77;;;;;12.20;1.00;;;;;;2260692;61;1647;-88
2023/04/07 04:14:19;601235.00;2.00;1036.35;0.00;0.00;0.62;;;;;12.20;1.00;;;;;;2260698;61;2003;-88
2023/04/07 04:16:46;787658.00;2.63;1359.61;83136.00;0.28;144.45;;;;;12.30;1.00;;;;;;2260716;61;1564;-87
2023/04/07 04:19:14;850568.00;2.84;1469.46;97653.00;0.33;169.52;;;;;12.00;1.00;;;;;;2260854;61;1189;-87
2023/04/07 04:21:41;1379556.00;4.60;2418.46;106349.00;0.35;184.53;;;;;12.00;1.00;;;;;;2260853;61;1274;-88
2023/04/07 04:24:08;1809034.00;6.03;3239.30;318067.00;1.06;548.98;;;;;11.90;1.00;;;;;;2268666;41;3621;-87
2023/04/07 04:26:35;691926.00;2.31;1193.24;95306.00;0.32;165.47;;;;;12.00;1.00;;;;;;2262383;61;2090;-87
2023/04/07 04:29:02;117333888.00;391.11;65433212.00;123171.00;0.41;213.55;;;;;12.20;1.00;;;;;;2260689;61;1123;-87
2023/04/07 04:31:29;93891.00;0.31;163.03;12404.00;0.04;22.11;;;;;12.50;1.00;;;;;;2260627;61;1770;-87
2023/04/07 04:33:56;196887.00;0.66;340.57;0.00;0.00;0.62;;;;;12.50;1.00;;;;;;2260797;61;1993;-88
2023/04/07 04:36:25;77255.00;0.26;134.30;0.00;0.00;0.62;;;;;12.70;1.00;;;;;;2260781;61;1106;-87
2023/04/07 04:41:19;289140.00;0.96;499.25;0.00;0.00;0.62;;;;;12.20;1.00;;;;;;2254581;61;1429;-89
2023/04/07 04:43:46;112585.00;0.38;195.29;0.00;0.00;0.62;;;;;12.60;1.00;;;;;;2252855;61;1103;-88
2023/04/07 04:46:13;28350.00;0.09;49.73;0.00;0.00;0.62;;;;;12.70;1.00;;;;;;2252845;61;984;-89
2023/04/07 04:48:40;200749.00;0.67;347.21;17282.00;0.06;30.56;;;;;12.50;1.00;;;;;;2252765;61;1653;-87
2023/04/07 04:51:08;85675.00;0.29;148.84;0.00;0.00;0.62;;;;;12.50;1.00;;;;;;2252784;61;1311;-89
2023/04/07 04:53:36;108246.00;0.36;187.80;0.00;0.00;0.62;;;;;12.20;1.00;;;;;;2252661;61;1914;-86
2023/04/07 04:56:03;129116.00;0.43;223.80;0.00;0.00;0.62;;;;;11.90;1.00;;;;;;2252717;61;1008;-87
2023/04/07 04:58:30;142426.00;0.47;246.75;0.00;0.00;0.62;;;;;11.80;1.00;;;;;;2252827;61;1170;-89
2023/04/07 05:00:58;92041.00;0.31;159.83;0.00;0.00;0.62;;;;;11.90;1.00;;;;;;2252724;61;1325;-86
2023/04/07 05:03:25;79028.00;0.26;137.36;0.00;0.00;0.62;;;;;11.90;1.00;;;;;;2252803;61;1619;-85
2023/04/07 05:05:52;90058.00;0.30;156.41;0.00;0.00;0.62;;;;;11.90;1.00;;;;;;2252783;61;1047;-88
2023/04/07 05:08:20;56618.00;0.19;98.63;0.00;0.00;0.62;;;;;11.60;1.00;;;;;;2266702;40;3596;-87
2023/04/07 05:10:48;1547713.00;5.16;2733.23;132198.00;0.44;229.12;;;;;11.50;1.00;;;;;;2276824;61;1848;-88
2023/04/07 05:13:15;986423.00;3.29;1708.44;154958.00;0.52;268.35;;;;;11.60;1.00;;;;;;2277160;61;1755;-88
2023/04/07 05:15:42;1239632.00;4.13;2162.04;194378.00;0.65;336.25;;;;;11.50;1.00;;;;;;2276973;61;1935;-87
2023/04/07 05:18:09;907789.00;3.03;1569.80;142973.00;0.48;247.70;;;;;11.50;1.00;;;;;;2277082;61;1549;-87
2023/04/07 05:20:37;497127.00;1.66;856.88;97764.00;0.33;169.71;;;;;11.50;1.00;;;;;;2277141;61;1084;-88
2023/04/07 05:23:04;496485.00;1.65;855.77;102074.00;0.34;177.15;;;;;11.80;1.00;;;;;;2277137;61;1311;-89
2023/04/07 05:25:32;172028.00;0.57;297.76;0.00;0.00;0.62;;;;;11.80;1.00;;;;;;2276896;61;2185;-88
2023/04/07 05:28:00;160859.00;0.54;278.52;5016.00;0.02;9.31;;;;;11.80;1.00;;;;;;2277191;61;1058;-87
2023/04/07 05:30:27;98963.00;0.33;171.78;0.00;0.00;0.62;;;;;11.50;1.00;;;;;;2277071;61;1017;-87
2023/04/07 05:32:54;117061264.00;390.20;64977788.00;0.00;0.00;0.62;;;;;11.60;1.00;;;;;;2277052;61;1460;-89
2023/04/07 05:35:23;37506.00;0.13;65.57;0.00;0.00;0.62;;;;;11.60;1.00;;;;;;2276956;61;2235;-89
2023/04/07 05:37:50;986965.00;3.29;1709.40;207304.00;0.69;358.50;;;;;11.70;1.00;;;;;;2268699;55;3755;-86
2023/04/07 05:40:17;13168.00;0.04;23.44;0.00;0.00;0.62;;;;;11.70;1.00;;;;;;2261149;61;1106;-88
2023/04/07 05:42:44;62689.00;0.21;109.13;0.00;0.00;0.62;;;;;11.70;1.00;;;;;;2260497;61;1425;-89
2023/04/07 05:45:13;132612.00;0.44;229.83;0.00;0.00;0.62;;;;;12.00;1.00;;;;;;2260494;61;1120;-89
2023/04/07 05:47:40;51066.00;0.17;89.03;0.00;0.00;0.62;;;;;11.90;1.00;;;;;;2260508;61;1680;-88
2023/04/07 05:50:07;50673.00;0.17;88.35;0.00;0.00;0.62;;;;;11.90;1.00;;;;;;2260548;61;2204;-88
2023/04/07 05:52:34;53159.00;0.18;92.65;0.00;0.00;0.62;;;;;12.30;1.00;;;;;;2260521;61;1309;-87
2023/04/07 05:55:01;200183.00;0.67;346.24;8165.00;0.03;14.77;;;;;12.00;1.00;;;;;;2260565;61;2001;-89
2023/04/07 05:57:28;100966.00;0.34;175.24;0.00;0.00;0.62;;;;;12.10;1.00;;;;;;2260590;61;1180;-89
2023/04/07 05:59:55;143309.00;0.48;248.28;0.00;0.00;0.62;;;;;12.20;1.00;;;;;;2260666;61;1126;-88
2023/04/07 06:02:24;144579.00;0.48;250.46;0.00;0.00;0.62;;;;;12.30;1.00;;;;;;2260670;61;1286;-88
2023/04/07 06:04:51;222989.00;0.74;385.49;0.00;0.00;0.62;;;;;12.50;1.00;;;;;;2260630;61;1095;-89
2023/04/07 06:07:18;227112.00;0.76;392.58;0.00;0.00;0.62;;;;;12.50;1.00;;;;;;2260518;61;1739;-88
2023/04/07 06:09:45;232150.00;0.77;401.25;0.00;0.00;0.62;;;;;12.40;1.00;;;;;;2260496;61;1620;-87
2023/04/07 06:12:15;85270.00;0.28;148.14;0.00;0.00;0.62;;;;;12.20;1.00;;;;;;2260486;61;1379;-88
2023/04/07 06:14:43;981626.00;3.27;1699.96;60587.00;0.20;105.49;;;;;12.50;1.00;;;;;;2260390;61;1988;-89
2023/04/07 06:17:12;1181309.00;3.94;2056.46;54498.00;0.18;94.96;;;;;12.80;1.00;;;;;;2260440;61;1597;-90
2023/04/07 06:19:40;1099004.00;3.66;1908.64;104679.00;0.35;181.65;;;;;12.80;1.00;;;;;;2260575;61;1153;-87
2023/04/07 06:22:07;277592.00;0.93;479.40;97782.00;0.33;169.74;;;;;13.00;1.00;;;;;;2260447;61;1424;-88
2023/04/07 06:24:34;35693.00;0.12;62.44;0.00;0.00;0.62;;;;;12.70;1.00;;;;;;2260538;61;933;-89
2023/04/07 06:27:02;56701.00;0.19;98.77;0.00;0.00;0.62;;;;;12.50;1.00;;;;;;2260351;61;2407;-89
2023/04/07 06:31:58;586217.00;1.95;1010.43;0.00;0.00;0.62;;;;;12.30;1.00;;;;;;2254140;61;1432;-89
2023/04/07 06:34:25;150466.00;0.50;260.61;0.00;0.00;0.62;;;;;12.40;1.00;;;;;;2252364;61;1996;-91
2023/04/07 06:36:54;8329.00;0.03;15.05;0.00;0.00;0.62;;;;;12.50;1.00;;;;;;2252787;61;1069;-87
2023/04/07 06:41:49;421731.00;1.41;727.17;0.00;0.00;0.62;;;;;12.70;1.00;;;;;;2254775;61;1417;-86
2023/04/07 06:44:15;59992.00;0.20;104.46;0.00;0.00;0.62;;;;;13.20;1.00;;;;;;2253222;61;970;-87
2023/04/07 06:46:43;187963.00;0.63;325.20;0.00;0.00;0.62;;;;;13.30;1.00;;;;;;2253257;61;1070;-88
2023/04/07 06:49:10;154519.00;0.52;267.60;0.00;0.00;0.62;;;;;13.40;1.00;;;;;;2253106;61;1559;-87
2023/04/07 06:51:37;140959.00;0.47;244.22;0.00;0.00;0.62;;;;;13.30;1.00;;;;;;2252960;61;1652;-87
2023/04/07 06:54:11;59409.00;0.20;103.46;0.00;0.00;0.62;;;;;13.20;1.00;;;;;;2253084;61;1993;-89
2023/04/07 06:56:38;166686.00;0.56;288.56;0.00;0.00;0.62;;;;;13.20;1.00;;;;;;2253089;61;1118;-87
2023/04/07 06:59:05;216587.00;0.72;374.47;37415.00;0.12;65.42;;;;;13.10;1.00;;;;;;2252993;61;1159;-87
2023/04/07 07:01:32;64661.00;0.22;112.53;0.00;0.00;0.62;;;;;12.90;1.00;;;;;;2253043;61;1325;-87
2023/04/07 07:04:00;335619.00;1.12;579.14;34797.00;0.12;60.89;;;;;12.40;1.00;;;;;;2253119;61;1031;-89
2023/04/07 07:06:27;728560.00;2.43;1256.80;36284.00;0.12;63.46;;;;;12.40;1.00;;;;;;2253121;61;997;-88
2023/04/07 07:08:54;754176.00;2.51;1301.32;124004.00;0.41;214.99;;;;;12.80;1.00;;;;;;2258076;55;3747;-87
2023/04/07 07:11:23;846390.00;2.82;1462.15;82705.00;0.28;143.71;;;;;13.20;1.00;;;;;;2269256;40;3660;-88
2023/04/07 07:16:23;1163637.00;3.88;2024.61;36733.00;0.12;64.24;;;;;13.70;1.00;;;;;;2271486;61;1408;-87
2023/04/07 07:18:50;1038075.00;3.46;1800.03;57247.00;0.19;99.72;;;;;13.60;1.00;;;;;;2269467;61;1091;-89
2023/04/07 07:21:18;969027.00;3.23;1677.69;51490.00;0.17;89.76;;;;;13.60;1.00;;;;;;2269326;61;1389;-88
2023/04/07 07:23:45;957733.00;3.19;1657.75;154983.00;0.52;268.39;;;;;13.80;1.00;;;;;;2269226;61;1106;-88
2023/04/07 07:26:12;1070556.00;3.57;1857.85;186433.00;0.62;322.57;;;;;13.60;1.00;;;;;;2286331;40;3799;-88
2023/04/07 07:28:40;356265.00;1.19;614.63;97026.00;0.32;168.44;;;;;13.60;1.00;;;;;;2266599;55;3750;-87
2023/04/07 07:31:11;307698.00;1.03;531.15;90461.00;0.30;157.10;;;;;13.80;1.00;;;;;;2264960;61;1419;-88
2023/04/07 07:33:39;166906.00;0.56;288.94;0.00;0.00;0.62;;;;;13.80;1.00;;;;;;2264964;61;1228;-88
2023/04/07 07:36:07;72082.00;0.24;125.36;0.00;0.00;0.62;;;;;13.60;1.00;;;;;;2264884;61;1993;-89
2023/04/07 07:38:34;38226.00;0.13;66.82;0.00;0.00;0.62;;;;;13.20;1.00;;;;;;2265064;61;1020;-89
2023/04/07 07:41:01;55794.00;0.19;97.21;0.00;0.00;0.62;;;;;13.40;1.00;;;;;;2264868;61;1737;-88
2023/04/07 07:43:28;110103.00;0.37;191.01;0.00;0.00;0.62;;;;;13.90;1.00;;;;;;2264916;61;1037;-89
2023/04/07 07:45:56;71544.00;0.24;124.43;0.00;0.00;0.62;;;;;14.40;1.00;;;;;;2264958;61;1163;-90
2023/04/07 07:48:23;305626.00;1.02;527.59;45269.00;0.15;79.00;;;;;14.20;1.00;;;;;;2264655;61;2171;-88
2023/04/07 07:50:51;112572.00;0.38;195.27;0.00;0.00;0.62;;;;;14.50;1.00;;;;;;2264859;61;1363;-89
2023/04/07 07:53:19;18985.00;0.06;33.51;0.00;0.00;0.62;;;;;14.50;1.00;;;;;;2281530;55;3757;-89
2023/04/07 07:55:48;43318.00;0.14;75.63;0.00;0.00;0.62;;;;;14.30;1.00;;;;;;2281320;61;1911;-87
2023/04/07 07:58:15;75453.00;0.25;131.18;0.00;0.00;0.62;;;;;14.30;1.00;;;;;;2281350;61;1650;-87
2023/04/07 08:00:42;67564.00;0.23;117.55;0.00;0.00;0.62;;;;;14.80;1.00;;;;;;2281431;61;1001;-86
2023/04/07 08:03:11;50126.00;0.17;87.40;0.00;0.00;0.62;;;;;14.90;1.00;;;;;;2277386;61;1069;-89
2023/04/07 08:05:38;350294.00;1.17;604.37;25022.00;0.08;43.97;;;;;15.00;1.00;;;;;;2277372;61;2155;-89
2023/04/07 08:08:05;1647234.00;5.49;2923.35;155208.00;0.52;268.78;;;;;15.30;1.00;;;;;;2272642;55;3881;-87
2023/04/07 08:13:01;1024139.00;3.41;1775.27;141576.00;0.47;245.29;;;;;15.40;1.00;;;;;;2254609;61;1269;-91
2023/04/07 08:15:28;295004.00;0.98;509.33;84729.00;0.28;147.21;;;;;15.90;1.00;;;;;;2252697;61;1995;-90
2023/04/07 08:17:55;239913.00;0.80;414.60;91557.00;0.31;159.00;;;;;16.30;1.00;;;;;;2252826;61;1437;-87
2023/04/07 08:20:24;484163.00;1.61;834.56;116875.00;0.39;202.69;;;;;16.40;1.00;;;;;;2252812;61;1625;-88
2023/04/07 08:22:51;208284.00;0.69;360.18;26158.00;0.09;45.93;;;;;16.40;1.00;;;;;;2252593;61;1451;-88
2023/04/07 08:25:18;222076.00;0.74;383.92;0.00;0.00;0.62;;;;;16.50;1.00;;;;;;2252666;61;1140;-88
2023/04/07 08:27:45;129451.00;0.43;224.38;0.00;0.00;0.62;;;;;16.90;1.00;;;;;;2252886;61;957;-88
2023/04/07 08:30:15;223195.00;0.74;385.84;0.00;0.00;0.62;;;;;17.30;1.00;;;;;;2252751;61;1107;-88
2023/04/07 08:32:44;238917.00;0.80;412.89;21645.00;0.07;38.12;;;;;16.80;1.00;;;;;;2252849;61;1396;-88
2023/04/07 08:35:12;14826.00;0.05;26.31;0.00;0.00;0.62;;;;;16.90;1.00;;;;;;2252767;61;1914;-90
2023/04/07 08:37:43;426841.00;1.42;735.95;2234.00;0.01;4.49;;;;;17.30;1.00;;;;;;2252706;61;1450;-89
2023/04/07 08:40:11;1739013.00;5.80;3101.48;191892.00;0.64;331.97;;;;;17.40;1.00;;;;;;2252773;61;1154;-90
2023/04/07 08:42:48;1010134.00;3.37;1750.43;122529.00;0.41;212.44;;;;;17.10;1.00;;;;;;2252777;61;1409;-88
2023/04/07 08:45:20;1048876.00;3.50;1819.23;109841.00;0.37;190.56;;;;;17.00;1.00;;;;;;2252552;61;1119;-88
2023/04/07 08:47:51;1949560.00;6.50;3521.26;271087.00;0.90;468.21;;;;;17.10;1.00;;;;;;2252511;61;1687;-89
2023/04/07 08:50:20;1221092.00;4.07;2128.40;159466.00;0.53;276.12;;;;;17.20;1.00;;;;;;2252773;61;1126;-90
2023/04/07 08:52:53;120517304.00;401.72;70910024.00;190215.00;0.63;329.08;;;;;17.10;1.00;;;;;;2252687;61;1557;-89
2023/04/07 08:55:20;1100796.00;3.67;1911.85;188075.00;0.63;325.39;;;;;16.80;1.00;;;;;;2265476;56;3771;-88
2023/04/07 09:10:25;421379.00;1.40;726.56;92782.00;0.31;161.11;;;;;17.40;1.00;;;;;;2254445;61;1345;-89
2023/04/07 09:22:53;406802.00;1.36;701.50;0.00;0.00;0.62;;;;;17.80;1.00;;;;;;2254207;61;1582;-87
2023/04/07 09:25:22;48356.00;0.16;84.34;0.00;0.00;0.62;;;;;17.40;1.00;;;;;;2252645;61;2194;-88
2023/04/07 09:27:59;49446.00;0.16;86.23;0.00;0.00;0.62;;;;;17.40;1.00;;;;;;2252627;61;1307;-88
2023/04/07 09:30:26;152825.00;0.51;264.68;0.00;0.00;0.62;;;;;17.30;1.00;;;;;;2252683;61;1025;-89
2023/04/07 09:32:53;58132.00;0.19;101.25;0.00;0.00;0.62;;;;;17.00;1.00;;;;;;2252604;61;1826;-88
2023/04/07 09:35:21;51074.00;0.17;89.04;0.00;0.00;0.62;;;;;16.50;1.00;;;;;;2252576;61;1920;-88
2023/04/07 09:40:27;508685.00;1.70;876.78;0.00;0.00;0.62;;;;;16.00;1.00;;;;;;2268255;55;3611;-88
2023/04/07 09:42:54;217347.00;0.72;375.78;0.00;0.00;0.62;;;;;15.90;1.00;;;;;;2264443;61;1538;-87
2023/04/07 09:45:26;84545.00;0.28;146.89;0.00;0.00;0.62;;;;;16.10;1.00;;;;;;2264533;61;1558;-86
2023/04/07 09:50:34;453333.00;1.51;781.52;0.00;0.00;0.62;;;;;16.80;1.00;;;;;;2250220;61;1350;-88
2023/04/07 09:53:02;300652.00;1.00;519.04;0.00;0.00;0.62;;;;;17.30;1.00;;;;;;2253808;40;3650;-88
2023/04/07 09:55:30;126298.00;0.42;218.95;0.00;0.00;0.62;;;;;17.40;1.00;;;;;;2260488;61;2005;-88
2023/04/07 09:57:58;197275.00;0.66;341.23;18938.00;0.06;33.43;;;;;18.40;1.00;;;;;;2260474;61;1710;-87
2023/04/07 10:00:26;1544352.00;5.15;2726.86;187125.00;0.62;323.76;;;;;18.90;1.00;;;;;;2271731;40;3573;-88
2023/04/07 10:02:56;650217.00;2.17;1121.01;104406.00;0.35;181.18;;;;;19.10;1.00;;;;;;2277445;61;1466;-92
2023/04/07 10:05:25;321856.00;1.07;555.49;89916.00;0.30;156.16;;;;;19.20;1.00;;;;;;2277616;61;1138;-90
2023/04/07 10:07:53;529570.00;1.77;912.75;125439.00;0.42;217.46;;;;;18.60;1.00;;;;;;2277645;61;1321;-90
2023/04/07 10:10:20;393461.00;1.31;678.56;132285.00;0.44;229.27;;;;;18.00;1.00;;;;;;2297848;55;3769;-86
2023/04/07 10:15:21;1123767.00;3.75;1952.98;160050.00;0.53;277.13;;;;;18.00;1.00;;;;;;2274616;61;1907;-89
2023/04/07 10:17:50;273298.00;0.91;472.01;93625.00;0.31;162.57;;;;;18.80;1.00;;;;;;2272799;61;1786;-88
2023/04/07 10:27:52;561225.00;1.87;967.31;0.00;0.00;0.62;;;;;18.80;1.00;;;;;;2258149;61;1444;-88
2023/04/07 10:30:25;124149440.00;413.83;77522864.00;89170.00;0.30;154.87;;;;;18.50;1.00;;;;;;2284733;41;3554;-86
2023/04/07 10:32:55;257959.00;0.86;445.64;0.00;0.00;0.62;;;;;18.10;1.00;;;;;;2276708;61;1668;-88
2023/04/07 10:35:23;114586.00;0.38;198.74;0.00;0.00;0.62;;;;;17.80;1.00;;;;;;2292261;40;3594;-88
2023/04/07 10:42:51;478365.00;1.59;824.58;0.00;0.00;0.62;;;;;18.30;1.00;;;;;;1599452;55;3967;-89
2023/04/07 10:45:55;390504.00;1.30;673.48;9421.00;0.03;16.95;;;;;18.70;1.00;;;;;;2338915;56;3728;-88
2023/04/07 10:51:23;691130.00;2.30;1191.86;0.00;0.00;0.62;;;;;18.10;1.00;;;;;;2321168;41;3429;-88
2023/04/07 10:56:25;771945.00;2.57;1332.24;0.00;0.00;0.62;;;;;18.90;1.00;;;;;;1559798;41;3470;-87
2023/04/07 10:59:15;117853.00;0.39;204.38;0.00;0.00;0.62;;;;;19.30;1.00;;;;;;2378545;41;3757;-87
2023/04/07 11:01:41;25124.00;0.08;44.14;0.00;0.00;0.62;;;;;19.20;1.00;;;;;;2260397;61;1558;-88
2023/04/07 11:04:08;158411.00;0.53;274.30;0.00;0.00;0.62;;;;;18.30;1.00;;;;;;2260324;61;1769;-87
2023/04/07 11:11:42;767591.00;2.56;1324.66;0.00;0.00;0.62;;;;;18.80;1.00;;;;;;2265523;40;3490;-87